Terminal Aerodrome Forecast
Issued by NWS

Home | Current Version | Previous Version | Text Only | Print | Product List | Glossary On
Versions: 1 2 3 4 5 6 7 8 9 10 11 12 13 14
000
FTUS41 KPBZ 271735
TAFLBE
TAF
KLBE 271735Z 2718/2818 31012G22KT P6SM -SHRA BKN015 OVC035
     FM280000 32012KT P6SM OVC025
     FM280900 33007KT P6SM BKN035
     FM281500 32010KT P6SM BKN050=

USA.gov is the U.S. government's official web portal to all federal, state and local government web resources and services.